sensor_id;sensor_type;location;lat;lon;timestamp;temperature;humidity
72762;SHT30;60886;55.034;73.150;2024-02-21T00:02:33;-26.11;76.54
72762;SHT30;60886;55.034;73.150;2024-02-21T00:05:35;-26.11;76.57
72762;SHT30;60886;55.034;73.150;2024-02-21T00:08:36;-26.08;76.62
72762;SHT30;60886;55.034;73.150;2024-02-21T00:11:38;-26.13;76.65
72762;SHT30;60886;55.034;73.150;2024-02-21T00:14:40;-26.11;76.77
72762;SHT30;60886;55.034;73.150;2024-02-21T00:17:43;-26.08;76.95
72762;SHT30;60886;55.034;73.150;2024-02-21T00:20:45;-26.07;76.87
72762;SHT30;60886;55.034;73.150;2024-02-21T00:23:46;-26.08;76.75
72762;SHT30;60886;55.034;73.150;2024-02-21T00:26:48;-26.17;76.55
72762;SHT30;60886;55.034;73.150;2024-02-21T00:29:49;-26.18;76.67
72762;SHT30;60886;55.034;73.150;2024-02-21T00:32:51;-26.18;76.76
72762;SHT30;60886;55.034;73.150;2024-02-21T00:35:53;-26.17;77.02
72762;SHT30;60886;55.034;73.150;2024-02-21T00:38:54;-26.17;76.90
72762;SHT30;60886;55.034;73.150;2024-02-21T00:41:56;-26.25;76.95
72762;SHT30;60886;55.034;73.150;2024-02-21T00:44:58;-26.27;77.08
72762;SHT30;60886;55.034;73.150;2024-02-21T00:48:00;-26.27;77.18
72762;SHT30;60886;55.034;73.150;2024-02-21T00:51:01;-26.29;77.25
72762;SHT30;60886;55.034;73.150;2024-02-21T00:54:03;-26.27;77.31
72762;SHT30;60886;55.034;73.150;2024-02-21T00:57:05;-26.22;77.65
72762;SHT30;60886;55.034;73.150;2024-02-21T01:00:09;-26.21;77.65
72762;SHT30;60886;55.034;73.150;2024-02-21T01:03:11;-26.24;77.51
72762;SHT30;60886;55.034;73.150;2024-02-21T01:06:13;-26.22;77.55
72762;SHT30;60886;55.034;73.150;2024-02-21T01:09:15;-26.24;77.50
72762;SHT30;60886;55.034;73.150;2024-02-21T01:12:17;-26.22;77.68
72762;SHT30;60886;55.034;73.150;2024-02-21T01:15:19;-26.25;77.53
72762;SHT30;60886;55.034;73.150;2024-02-21T01:18:21;-26.20;77.63
72762;SHT30;60886;55.034;73.150;2024-02-21T01:21:23;-26.22;77.51
72762;SHT30;60886;55.034;73.150;2024-02-21T01:24:24;-26.24;77.54
72762;SHT30;60886;55.034;73.150;2024-02-21T01:27:26;-26.28;77.75
72762;SHT30;60886;55.034;73.150;2024-02-21T01:30:28;-26.27;77.90
72762;SHT30;60886;55.034;73.150;2024-02-21T01:33:29;-26.29;77.78
72762;SHT30;60886;55.034;73.150;2024-02-21T01:36:36;-26.28;77.71
72762;SHT30;60886;55.034;73.150;2024-02-21T01:39:37;-26.33;77.57
72762;SHT30;60886;55.034;73.150;2024-02-21T01:42:39;-26.35;77.54
72762;SHT30;60886;55.034;73.150;2024-02-21T01:45:42;-26.35;77.57
72762;SHT30;60886;55.034;73.150;2024-02-21T01:48:43;-26.33;77.51
72762;SHT30;60886;55.034;73.150;2024-02-21T01:51:47;-26.35;77.58
72762;SHT30;60886;55.034;73.150;2024-02-21T01:54:49;-26.39;77.46
72762;SHT30;60886;55.034;73.150;2024-02-21T01:57:51;-26.41;77.43
72762;SHT30;60886;55.034;73.150;2024-02-21T02:00:53;-26.43;77.39
72762;SHT30;60886;55.034;73.150;2024-02-21T02:03:59;-26.43;77.54
72762;SHT30;60886;55.034;73.150;2024-02-21T02:07:02;-26.43;77.63
72762;SHT30;60886;55.034;73.150;2024-02-21T02:10:05;-26.42;77.66
72762;SHT30;60886;55.034;73.150;2024-02-21T02:13:09;-26.41;77.65
72762;SHT30;60886;55.034;73.150;2024-02-21T02:16:11;-26.42;77.60
72762;SHT30;60886;55.034;73.150;2024-02-21T02:19:13;-26.42;77.51
72762;SHT30;60886;55.034;73.150;2024-02-21T02:22:22;-26.31;77.59
72762;SHT30;60886;55.034;73.150;2024-02-21T02:25:24;-26.31;77.49
72762;SHT30;60886;55.034;73.150;2024-02-21T02:29:01;-26.31;77.41
72762;SHT30;60886;55.034;73.150;2024-02-21T02:32:03;-26.32;77.54
72762;SHT30;60886;55.034;73.150;2024-02-21T02:35:05;-26.32;77.48
72762;SHT30;60886;55.034;73.150;2024-02-21T02:38:06;-26.31;77.47
72762;SHT30;60886;55.034;73.150;2024-02-21T02:45:42;-26.21;77.27
72762;SHT30;60886;55.034;73.150;2024-02-21T02:52:41;-26.10;77.07
72762;SHT30;60886;55.034;73.150;2024-02-21T02:55:42;-26.10;76.97
72762;SHT30;60886;55.034;73.150;2024-02-21T02:58:44;-26.06;76.89
72762;SHT30;60886;55.034;73.150;2024-02-21T03:01:46;-26.03;76.99
72762;SHT30;60886;55.034;73.150;2024-02-21T03:04:47;-25.97;76.97
72762;SHT30;60886;55.034;73.150;2024-02-21T03:07:49;-25.87;76.94
72762;SHT30;60886;55.034;73.150;2024-02-21T03:10:51;-25.83;76.76
72762;SHT30;60886;55.034;73.150;2024-02-21T03:13:52;-25.72;76.59
72762;SHT30;60886;55.034;73.150;2024-02-21T03:16:54;-25.69;76.25
72762;SHT30;60886;55.034;73.150;2024-02-21T03:19:56;-25.62;76.12
72762;SHT30;60886;55.034;73.150;2024-02-21T03:22:57;-25.58;75.98
72762;SHT30;60886;55.034;73.150;2024-02-21T03:25:59;-25.41;75.96
72762;SHT30;60886;55.034;73.150;2024-02-21T03:29:00;-25.38;75.66
72762;SHT30;60886;55.034;73.150;2024-02-21T03:32:02;-25.24;75.68
72762;SHT30;60886;55.034;73.150;2024-02-21T03:35:04;-25.12;75.34
72762;SHT30;60886;55.034;73.150;2024-02-21T03:38:06;-24.96;75.21
72762;SHT30;60886;55.034;73.150;2024-02-21T03:41:08;-24.79;74.77
72762;SHT30;60886;55.034;73.150;2024-02-21T03:44:09;-24.67;74.61
72762;SHT30;60886;55.034;73.150;2024-02-21T03:47:11;-24.55;74.14
72762;SHT30;60886;55.034;73.150;2024-02-21T03:50:19;-24.46;73.65
72762;SHT30;60886;55.034;73.150;2024-02-21T03:53:20;-24.17;73.33
72762;SHT30;60886;55.034;73.150;2024-02-21T03:56:22;-24.00;72.82
72762;SHT30;60886;55.034;73.150;2024-02-21T03:59:23;-23.83;72.36
72762;SHT30;60886;55.034;73.150;2024-02-21T04:02:25;-23.57;72.36
72762;SHT30;60886;55.034;73.150;2024-02-21T04:05:26;-23.42;71.69
72762;SHT30;60886;55.034;73.150;2024-02-21T04:08:28;-23.23;71.18
72762;SHT30;60886;55.034;73.150;2024-02-21T04:11:29;-23.11;70.80
72762;SHT30;60886;55.034;73.150;2024-02-21T04:14:31;-22.98;70.20
72762;SHT30;60886;55.034;73.150;2024-02-21T04:17:32;-22.77;70.09
72762;SHT30;60886;55.034;73.150;2024-02-21T04:20:34;-22.61;69.67
72762;SHT30;60886;55.034;73.150;2024-02-21T04:23:36;-22.49;69.15
72762;SHT30;60886;55.034;73.150;2024-02-21T04:26:38;-22.26;68.97
72762;SHT30;60886;55.034;73.150;2024-02-21T04:29:40;-22.12;68.01
72762;SHT30;60886;55.034;73.150;2024-02-21T04:32:42;-22.06;67.31
72762;SHT30;60886;55.034;73.150;2024-02-21T04:35:43;-21.96;66.92
72762;SHT30;60886;55.034;73.150;2024-02-21T04:38:45;-21.91;66.20
72762;SHT30;60886;55.034;73.150;2024-02-21T04:41:47;-21.96;65.59
72762;SHT30;60886;55.034;73.150;2024-02-21T04:44:48;-21.75;65.87
72762;SHT30;60886;55.034;73.150;2024-02-21T04:47:50;-21.83;65.13
72762;SHT30;60886;55.034;73.150;2024-02-21T04:50:51;-21.75;65.20
72762;SHT30;60886;55.034;73.150;2024-02-21T04:53:53;-21.68;65.51
72762;SHT30;60886;55.034;73.150;2024-02-21T04:56:55;-21.55;65.76
72762;SHT30;60886;55.034;73.150;2024-02-21T04:59:57;-21.55;65.49
72762;SHT30;60886;55.034;73.150;2024-02-21T05:02:58;-21.55;65.66
72762;SHT30;60886;55.034;73.150;2024-02-21T05:06:00;-21.43;66.00
72762;SHT30;60886;55.034;73.150;2024-02-21T05:09:02;-21.38;65.93
72762;SHT30;60886;55.034;73.150;2024-02-21T05:12:04;-21.31;65.68
72762;SHT30;60886;55.034;73.150;2024-02-21T05:15:06;-21.17;66.03
72762;SHT30;60886;55.034;73.150;2024-02-21T05:18:08;-21.19;65.99
72762;SHT30;60886;55.034;73.150;2024-02-21T05:21:09;-21.16;66.01
72762;SHT30;60886;55.034;73.150;2024-02-21T05:24:11;-21.20;65.91
72762;SHT30;60886;55.034;73.150;2024-02-21T05:27:12;-21.16;66.06
72762;SHT30;60886;55.034;73.150;2024-02-21T05:30:19;-21.14;66.29
72762;SHT30;60886;55.034;73.150;2024-02-21T05:33:21;-21.06;66.59
72762;SHT30;60886;55.034;73.150;2024-02-21T05:36:23;-20.96;66.72
72762;SHT30;60886;55.034;73.150;2024-02-21T05:39:24;-20.91;66.75
72762;SHT30;60886;55.034;73.150;2024-02-21T05:42:26;-20.89;66.71
72762;SHT30;60886;55.034;73.150;2024-02-21T05:45:28;-20.78;66.91
72762;SHT30;60886;55.034;73.150;2024-02-21T05:48:29;-20.62;66.94
72762;SHT30;60886;55.034;73.150;2024-02-21T05:51:34;-20.83;65.93
72762;SHT30;60886;55.034;73.150;2024-02-21T05:54:38;-20.73;66.60
72762;SHT30;60886;55.034;73.150;2024-02-21T05:57:41;-20.78;66.44
72762;SHT30;60886;55.034;73.150;2024-02-21T06:00:42;-20.71;66.48
72762;SHT30;60886;55.034;73.150;2024-02-21T06:03:44;-20.69;66.34
72762;SHT30;60886;55.034;73.150;2024-02-21T06:06:45;-20.57;66.46
72762;SHT30;60886;55.034;73.150;2024-02-21T06:09:47;-20.47;66.36
72762;SHT30;60886;55.034;73.150;2024-02-21T06:12:48;-20.47;65.99
72762;SHT30;60886;55.034;73.150;2024-02-21T06:15:50;-20.44;65.87
72762;SHT30;60886;55.034;73.150;2024-02-21T06:18:52;-20.34;66.09
72762;SHT30;60886;55.034;73.150;2024-02-21T06:21:53;-20.24;66.17
72762;SHT30;60886;55.034;73.150;2024-02-21T06:24:55;-20.24;66.13
72762;SHT30;60886;55.034;73.150;2024-02-21T06:27:56;-20.33;66.14
72762;SHT30;60886;55.034;73.150;2024-02-21T06:30:58;-20.27;66.11
72762;SHT30;60886;55.034;73.150;2024-02-21T06:33:59;-20.20;66.10
72762;SHT30;60886;55.034;73.150;2024-02-21T06:37:01;-20.09;66.13
72762;SHT30;60886;55.034;73.150;2024-02-21T06:40:03;-19.89;66.18
72762;SHT30;60886;55.034;73.150;2024-02-21T06:43:07;-19.96;65.70
72762;SHT30;60886;55.034;73.150;2024-02-21T06:46:08;-19.89;65.81
72762;SHT30;60886;55.034;73.150;2024-02-21T06:49:10;-19.89;65.58
72762;SHT30;60886;55.034;73.150;2024-02-21T06:52:19;-19.75;66.00
72762;SHT30;60886;55.034;73.150;2024-02-21T06:55:25;-19.78;65.68
72762;SHT30;60886;55.034;73.150;2024-02-21T06:58:26;-19.61;66.01
72762;SHT30;60886;55.034;73.150;2024-02-21T07:01:28;-19.72;65.51
72762;SHT30;60886;55.034;73.150;2024-02-21T07:04:29;-19.82;65.68
72762;SHT30;60886;55.034;73.150;2024-02-21T07:07:31;-19.75;66.00
72762;SHT30;60886;55.034;73.150;2024-02-21T07:10:32;-19.63;66.14
72762;SHT30;60886;55.034;73.150;2024-02-21T07:13:34;-19.51;66.16
72762;SHT30;60886;55.034;73.150;2024-02-21T07:16:36;-19.50;65.83
72762;SHT30;60886;55.034;73.150;2024-02-21T07:19:37;-19.50;65.53
72762;SHT30;60886;55.034;73.150;2024-02-21T07:22:39;-19.39;65.64
72762;SHT30;60886;55.034;73.150;2024-02-21T07:25:41;-19.39;65.43
72762;SHT30;60886;55.034;73.150;2024-02-21T07:28:42;-19.38;65.36
72762;SHT30;60886;55.034;73.150;2024-02-21T07:31:44;-19.17;65.82
72762;SHT30;60886;55.034;73.150;2024-02-21T07:34:46;-19.07;65.30
72762;SHT30;60886;55.034;73.150;2024-02-21T07:38:04;-18.94;65.06
72762;SHT30;60886;55.034;73.150;2024-02-21T07:41:06;-18.80;65.24
72762;SHT30;60886;55.034;73.150;2024-02-21T07:44:08;-18.86;64.23
72762;SHT30;60886;55.034;73.150;2024-02-21T07:47:10;-18.81;64.50
72762;SHT30;60886;55.034;73.150;2024-02-21T07:50:19;-18.81;64.17
72762;SHT30;60886;55.034;73.150;2024-02-21T07:53:20;-18.69;64.22
72762;SHT30;60886;55.034;73.150;2024-02-21T07:56:22;-18.73;64.17
72762;SHT30;60886;55.034;73.150;2024-02-21T07:59:24;-18.65;64.36
72762;SHT30;60886;55.034;73.150;2024-02-21T08:02:26;-18.67;64.01
72762;SHT30;60886;55.034;73.150;2024-02-21T08:05:28;-18.66;64.01
72762;SHT30;60886;55.034;73.150;2024-02-21T08:08:34;-18.55;64.19
72762;SHT30;60886;55.034;73.150;2024-02-21T08:11:35;-18.56;63.92
72762;SHT30;60886;55.034;73.150;2024-02-21T08:14:37;-18.69;63.67
72762;SHT30;60886;55.034;73.150;2024-02-21T08:17:38;-18.62;63.90
72762;SHT30;60886;55.034;73.150;2024-02-21T08:20:40;-18.52;63.84
72762;SHT30;60886;55.034;73.150;2024-02-21T08:23:42;-18.39;63.60
72762;SHT30;60886;55.034;73.150;2024-02-21T08:26:44;-18.48;63.25
72762;SHT30;60886;55.034;73.150;2024-02-21T08:29:48;-18.33;63.51
72762;SHT30;60886;55.034;73.150;2024-02-21T08:32:50;-18.29;63.19
72762;SHT30;60886;55.034;73.150;2024-02-21T08:35:54;-18.17;62.97
72762;SHT30;60886;55.034;73.150;2024-02-21T08:38:56;-18.21;62.63
72762;SHT30;60886;55.034;73.150;2024-02-21T08:41:58;-18.21;62.64
72762;SHT30;60886;55.034;73.150;2024-02-21T08:44:59;-18.21;62.50
72762;SHT30;60886;55.034;73.150;2024-02-21T08:48:01;-18.15;62.62
72762;SHT30;60886;55.034;73.150;2024-02-21T08:51:03;-18.22;62.43
72762;SHT30;60886;55.034;73.150;2024-02-21T08:54:05;-18.29;62.41
72762;SHT30;60886;55.034;73.150;2024-02-21T08:57:07;-18.25;62.92
72762;SHT30;60886;55.034;73.150;2024-02-21T09:00:09;-18.20;63.10
72762;SHT30;60886;55.034;73.150;2024-02-21T09:03:11;-18.15;62.97
72762;SHT30;60886;55.034;73.150;2024-02-21T09:06:13;-18.08;62.98
72762;SHT30;60886;55.034;73.150;2024-02-21T09:09:15;-18.17;62.37
72762;SHT30;60886;55.034;73.150;2024-02-21T09:12:16;-18.33;62.39
72762;SHT30;60886;55.034;73.150;2024-02-21T09:15:18;-18.29;63.22
72762;SHT30;60886;55.034;73.150;2024-02-21T09:18:20;-18.29;62.87
72762;SHT30;60886;55.034;73.150;2024-02-21T09:21:22;-18.24;63.15
72762;SHT30;60886;55.034;73.150;2024-02-21T09:24:23;-18.25;62.99
72762;SHT30;60886;55.034;73.150;2024-02-21T09:27:25;-18.33;62.73
72762;SHT30;60886;55.034;73.150;2024-02-21T09:30:26;-18.31;62.82
72762;SHT30;60886;55.034;73.150;2024-02-21T09:33:28;-18.46;62.62
72762;SHT30;60886;55.034;73.150;2024-02-21T09:36:30;-18.51;62.82
72762;SHT30;60886;55.034;73.150;2024-02-21T09:39:36;-18.51;63.15
72762;SHT30;60886;55.034;73.150;2024-02-21T09:42:38;-18.52;63.28
72762;SHT30;60886;55.034;73.150;2024-02-21T09:45:45;-18.59;63.03
72762;SHT30;60886;55.034;73.150;2024-02-21T09:52:20;-18.69;63.12
72762;SHT30;60886;55.034;73.150;2024-02-21T09:55:22;-18.67;63.46
72762;SHT30;60886;55.034;73.150;2024-02-21T09:58:26;-18.75;63.44
72762;SHT30;60886;55.034;73.150;2024-02-21T10:01:29;-18.73;63.75
72762;SHT30;60886;55.034;73.150;2024-02-21T10:04:30;-18.75;63.82
72762;SHT30;60886;55.034;73.150;2024-02-21T10:07:33;-18.67;64.03
72762;SHT30;60886;55.034;73.150;2024-02-21T10:10:45;-18.72;63.60
72762;SHT30;60886;55.034;73.150;2024-02-21T10:13:46;-18.72;63.92
72762;SHT30;60886;55.034;73.150;2024-02-21T10:16:56;-18.75;63.86
72762;SHT30;60886;55.034;73.150;2024-02-21T10:20:09;-18.70;63.96
72762;SHT30;60886;55.034;73.150;2024-02-21T10:23:11;-18.65;63.99
72762;SHT30;60886;55.034;73.150;2024-02-21T10:26:14;-18.65;63.95
72762;SHT30;60886;55.034;73.150;2024-02-21T10:29:16;-18.62;64.12
72762;SHT30;60886;55.034;73.150;2024-02-21T10:32:17;-18.69;63.96
72762;SHT30;60886;55.034;73.150;2024-02-21T10:35:32;-18.65;64.13
72762;SHT30;60886;55.034;73.150;2024-02-21T10:38:34;-18.72;63.92
72762;SHT30;60886;55.034;73.150;2024-02-21T10:41:36;-18.79;64.09
72762;SHT30;60886;55.034;73.150;2024-02-21T10:44:39;-18.87;64.20
72762;SHT30;60886;55.034;73.150;2024-02-21T10:47:44;-18.94;64.34
72762;SHT30;60886;55.034;73.150;2024-02-21T10:50:56;-18.77;64.71
72762;SHT30;60886;55.034;73.150;2024-02-21T10:57:35;-18.55;64.58
72762;SHT30;60886;55.034;73.150;2024-02-21T11:00:38;-18.65;64.03
72762;SHT30;60886;55.034;73.150;2024-02-21T11:03:42;-18.67;64.25
72762;SHT30;60886;55.034;73.150;2024-02-21T11:06:45;-18.69;64.07
72762;SHT30;60886;55.034;73.150;2024-02-21T11:09:54;-18.77;64.09
72762;SHT30;60886;55.034;73.150;2024-02-21T11:13:08;-18.84;64.30
72762;SHT30;60886;55.034;73.150;2024-02-21T11:16:11;-18.88;64.79
72762;SHT30;60886;55.034;73.150;2024-02-21T11:19:26;-18.88;64.92
72762;SHT30;60886;55.034;73.150;2024-02-21T11:22:28;-18.90;64.90
72762;SHT30;60886;55.034;73.150;2024-02-21T11:25:32;-19.04;64.87
72762;SHT30;60886;55.034;73.150;2024-02-21T11:28:37;-19.07;65.20
72762;SHT30;60886;55.034;73.150;2024-02-21T11:31:43;-19.11;65.29
72762;SHT30;60886;55.034;73.150;2024-02-21T11:34:58;-19.15;65.32
72762;SHT30;60886;55.034;73.150;2024-02-21T11:38:13;-19.24;65.25
72762;SHT30;60886;55.034;73.150;2024-02-21T11:41:19;-19.24;65.82
72762;SHT30;60886;55.034;73.150;2024-02-21T11:44:22;-19.27;65.62
72762;SHT30;60886;55.034;73.150;2024-02-21T11:47:24;-19.30;65.48
72762;SHT30;60886;55.034;73.150;2024-02-21T11:50:26;-19.30;65.22
72762;SHT30;60886;55.034;73.150;2024-02-21T11:53:28;-19.30;65.07
72762;SHT30;60886;55.034;73.150;2024-02-21T11:56:31;-19.32;65.37
72762;SHT30;60886;55.034;73.150;2024-02-21T11:59:34;-19.35;65.60
72762;SHT30;60886;55.034;73.150;2024-02-21T12:02:35;-19.38;65.45
72762;SHT30;60886;55.034;73.150;2024-02-21T12:05:37;-19.43;65.71
72762;SHT30;60886;55.034;73.150;2024-02-21T12:08:42;-19.51;65.96
72762;SHT30;60886;55.034;73.150;2024-02-21T12:11:45;-19.65;66.22
72762;SHT30;60886;55.034;73.150;2024-02-21T12:14:59;-19.72;66.67
72762;SHT30;60886;55.034;73.150;2024-02-21T12:18:01;-19.79;66.89
72762;SHT30;60886;55.034;73.150;2024-02-21T12:21:04;-19.85;67.18
72762;SHT30;60886;55.034;73.150;2024-02-21T12:24:27;-19.86;67.33
72762;SHT30;60886;55.034;73.150;2024-02-21T12:27:28;-19.99;67.19
72762;SHT30;60886;55.034;73.150;2024-02-21T12:30:31;-20.05;67.43
72762;SHT30;60886;55.034;73.150;2024-02-21T12:33:34;-20.17;67.54
72762;SHT30;60886;55.034;73.150;2024-02-21T12:36:44;-20.21;67.90
72762;SHT30;60886;55.034;73.150;2024-02-21T12:40:08;-20.23;68.13
72762;SHT30;60886;55.034;73.150;2024-02-21T12:43:11;-20.31;68.03
72762;SHT30;60886;55.034;73.150;2024-02-21T12:46:13;-20.41;68.30
72762;SHT30;60886;55.034;73.150;2024-02-21T12:49:14;-20.40;68.71
72762;SHT30;60886;55.034;73.150;2024-02-21T12:52:17;-20.44;68.81
72762;SHT30;60886;55.034;73.150;2024-02-21T12:55:18;-20.51;68.95
72762;SHT30;60886;55.034;73.150;2024-02-21T12:58:20;-20.52;69.16
72762;SHT30;60886;55.034;73.150;2024-02-21T13:01:22;-20.61;69.36
72762;SHT30;60886;55.034;73.150;2024-02-21T13:04:44;-20.65;69.62
72762;SHT30;60886;55.034;73.150;2024-02-21T13:07:45;-20.68;69.92
72762;SHT30;60886;55.034;73.150;2024-02-21T13:10:48;-20.71;69.95
72762;SHT30;60886;55.034;73.150;2024-02-21T13:14:02;-20.78;70.27
72762;SHT30;60886;55.034;73.150;2024-02-21T13:17:22;-20.81;70.23
72762;SHT30;60886;55.034;73.150;2024-02-21T13:20:25;-20.88;70.45
72762;SHT30;60886;55.034;73.150;2024-02-21T13:23:27;-20.91;70.63
72762;SHT30;60886;55.034;73.150;2024-02-21T13:26:29;-20.98;70.76
72762;SHT30;60886;55.034;73.150;2024-02-21T13:29:30;-21.00;70.88
72762;SHT30;60886;55.034;73.150;2024-02-21T13:32:32;-21.03;71.03
72762;SHT30;60886;55.034;73.150;2024-02-21T13:35:33;-21.06;71.17
72762;SHT30;60886;55.034;73.150;2024-02-21T13:38:38;-21.07;71.33
72762;SHT30;60886;55.034;73.150;2024-02-21T13:41:42;-21.10;71.27
72762;SHT30;60886;55.034;73.150;2024-02-21T13:44:45;-21.10;71.36
72762;SHT30;60886;55.034;73.150;2024-02-21T13:47:47;-21.19;71.36
72762;SHT30;60886;55.034;73.150;2024-02-21T13:50:49;-21.24;71.42
72762;SHT30;60886;55.034;73.150;2024-02-21T13:53:51;-21.23;71.67
72762;SHT30;60886;55.034;73.150;2024-02-21T13:57:08;-21.26;71.66
72762;SHT30;60886;55.034;73.150;2024-02-21T14:00:30;-21.26;71.69
72762;SHT30;60886;55.034;73.150;2024-02-21T14:03:34;-21.33;71.64
72762;SHT30;60886;55.034;73.150;2024-02-21T14:06:36;-21.38;71.67
72762;SHT30;60886;55.034;73.150;2024-02-21T14:09:38;-21.37;71.89
72762;SHT30;60886;55.034;73.150;2024-02-21T14:12:40;-21.44;71.81
72762;SHT30;60886;55.034;73.150;2024-02-21T14:15:43;-21.43;72.03
72762;SHT30;60886;55.034;73.150;2024-02-21T14:18:47;-21.48;71.92
72762;SHT30;60886;55.034;73.150;2024-02-21T14:21:48;-21.47;72.20
72762;SHT30;60886;55.034;73.150;2024-02-21T14:24:50;-21.50;72.20
72762;SHT30;60886;55.034;73.150;2024-02-21T14:27:51;-21.53;72.09
72762;SHT30;60886;55.034;73.150;2024-02-21T14:30:53;-21.54;72.16
72762;SHT30;60886;55.034;73.150;2024-02-21T14:33:58;-21.58;72.14
72762;SHT30;60886;55.034;73.150;2024-02-21T14:37:00;-21.59;72.27
72762;SHT30;60886;55.034;73.150;2024-02-21T14:40:02;-21.64;72.36
72762;SHT30;60886;55.034;73.150;2024-02-21T14:43:06;-21.69;72.48
72762;SHT30;60886;55.034;73.150;2024-02-21T14:46:07;-21.67;72.74
72762;SHT30;60886;55.034;73.150;2024-02-21T14:49:10;-21.69;72.75
72762;SHT30;60886;55.034;73.150;2024-02-21T14:52:12;-21.72;72.74
72762;SHT30;60886;55.034;73.150;2024-02-21T14:55:18;-21.74;72.71
72762;SHT30;60886;55.034;73.150;2024-02-21T14:58:20;-21.78;72.84
72762;SHT30;60886;55.034;73.150;2024-02-21T15:01:21;-21.86;72.81
72762;SHT30;60886;55.034;73.150;2024-02-21T15:04:23;-21.83;73.06
72762;SHT30;60886;55.034;73.150;2024-02-21T15:07:24;-21.85;72.96
72762;SHT30;60886;55.034;73.150;2024-02-21T15:10:27;-21.85;73.00
72762;SHT30;60886;55.034;73.150;2024-02-21T15:13:29;-21.89;73.02
72762;SHT30;60886;55.034;73.150;2024-02-21T15:16:31;-21.91;73.03
72762;SHT30;60886;55.034;73.150;2024-02-21T15:19:33;-21.93;73.08
72762;SHT30;60886;55.034;73.150;2024-02-21T15:22:35;-21.96;73.21
72762;SHT30;60886;55.034;73.150;2024-02-21T15:25:37;-21.98;73.41
72762;SHT30;60886;55.034;73.150;2024-02-21T15:28:39;-22.02;73.47
72762;SHT30;60886;55.034;73.150;2024-02-21T15:31:41;-22.03;73.68
72762;SHT30;60886;55.034;73.150;2024-02-21T15:34:47;-22.05;73.86
72762;SHT30;60886;55.034;73.150;2024-02-21T15:37:49;-22.06;73.96
72762;SHT30;60886;55.034;73.150;2024-02-21T15:40:50;-22.14;73.93
72762;SHT30;60886;55.034;73.150;2024-02-21T15:43:52;-22.14;74.12
72762;SHT30;60886;55.034;73.150;2024-02-21T15:46:54;-22.19;74.28
72762;SHT30;60886;55.034;73.150;2024-02-21T15:49:56;-22.22;74.39
72762;SHT30;60886;55.034;73.150;2024-02-21T15:52:58;-22.19;74.56
72762;SHT30;60886;55.034;73.150;2024-02-21T15:56:00;-22.19;74.66
72762;SHT30;60886;55.034;73.150;2024-02-21T15:59:01;-22.19;74.61
72762;SHT30;60886;55.034;73.150;2024-02-21T16:02:05;-22.22;74.70
72762;SHT30;60886;55.034;73.150;2024-02-21T16:05:10;-22.29;74.73
72762;SHT30;60886;55.034;73.150;2024-02-21T16:08:11;-22.33;74.80
72762;SHT30;60886;55.034;73.150;2024-02-21T16:11:14;-22.32;75.00
72762;SHT30;60886;55.034;73.150;2024-02-21T16:14:17;-22.30;75.14
72762;SHT30;60886;55.034;73.150;2024-02-21T16:17:19;-22.30;75.18
72762;SHT30;60886;55.034;73.150;2024-02-21T16:20:21;-22.30;75.33
72762;SHT30;60886;55.034;73.150;2024-02-21T16:23:22;-22.37;75.41
72762;SHT30;60886;55.034;73.150;2024-02-21T16:26:24;-22.39;75.58
72762;SHT30;60886;55.034;73.150;2024-02-21T16:29:26;-22.39;75.79
72762;SHT30;60886;55.034;73.150;2024-02-21T16:32:27;-22.34;75.86
72762;SHT30;60886;55.034;73.150;2024-02-21T16:35:29;-22.33;75.75
72762;SHT30;60886;55.034;73.150;2024-02-21T16:38:30;-22.34;75.68
72762;SHT30;60886;55.034;73.150;2024-02-21T16:41:34;-22.36;75.67
72762;SHT30;60886;55.034;73.150;2024-02-21T16:44:35;-22.40;75.69
72762;SHT30;60886;55.034;73.150;2024-02-21T16:47:37;-22.39;75.75
72762;SHT30;60886;55.034;73.150;2024-02-21T16:50:38;-22.36;75.75
72762;SHT30;60886;55.034;73.150;2024-02-21T16:53:41;-22.40;75.59
72762;SHT30;60886;55.034;73.150;2024-02-21T16:56:42;-22.46;75.54
72762;SHT30;60886;55.034;73.150;2024-02-21T16:59:44;-22.39;75.87
72762;SHT30;60886;55.034;73.150;2024-02-21T17:02:46;-22.43;75.88
72762;SHT30;60886;55.034;73.150;2024-02-21T17:05:48;-22.46;75.89
72762;SHT30;60886;55.034;73.150;2024-02-21T17:08:49;-22.50;76.06
72762;SHT30;60886;55.034;73.150;2024-02-21T17:11:51;-22.47;76.29
72762;SHT30;60886;55.034;73.150;2024-02-21T17:14:54;-22.43;76.40
72762;SHT30;60886;55.034;73.150;2024-02-21T17:17:56;-22.43;76.47
72762;SHT30;60886;55.034;73.150;2024-02-21T17:20:58;-22.46;76.31
72762;SHT30;60886;55.034;73.150;2024-02-21T17:23:59;-22.46;76.37
72762;SHT30;60886;55.034;73.150;2024-02-21T17:27:01;-22.49;76.37
72762;SHT30;60886;55.034;73.150;2024-02-21T17:30:03;-22.54;76.38
72762;SHT30;60886;55.034;73.150;2024-02-21T17:33:08;-22.54;76.47
72762;SHT30;60886;55.034;73.150;2024-02-21T17:36:09;-22.63;76.40
72762;SHT30;60886;55.034;73.150;2024-02-21T17:39:11;-22.67;76.43
72762;SHT30;60886;55.034;73.150;2024-02-21T17:42:13;-22.67;76.52
72762;SHT30;60886;55.034;73.150;2024-02-21T17:45:18;-22.74;76.49
72762;SHT30;60886;55.034;73.150;2024-02-21T17:48:20;-22.74;76.53
72762;SHT30;60886;55.034;73.150;2024-02-21T17:51:21;-22.78;76.56
72762;SHT30;60886;55.034;73.150;2024-02-21T17:54:23;-22.80;76.52
72762;SHT30;60886;55.034;73.150;2024-02-21T17:57:24;-22.87;76.53
72762;SHT30;60886;55.034;73.150;2024-02-21T18:00:27;-22.90;76.48
72762;SHT30;60886;55.034;73.150;2024-02-21T18:03:33;-22.90;76.54
72762;SHT30;60886;55.034;73.150;2024-02-21T18:06:34;-22.92;76.45
72762;SHT30;60886;55.034;73.150;2024-02-21T18:09:36;-23.02;76.36
72762;SHT30;60886;55.034;73.150;2024-02-21T18:12:38;-23.01;76.38
72762;SHT30;60886;55.034;73.150;2024-02-21T18:15:40;-23.02;76.44
72762;SHT30;60886;55.034;73.150;2024-02-21T18:18:41;-23.04;76.52
72762;SHT30;60886;55.034;73.150;2024-02-21T18:21:43;-23.12;76.46
72762;SHT30;60886;55.034;73.150;2024-02-21T18:24:44;-23.11;76.51
72762;SHT30;60886;55.034;73.150;2024-02-21T18:27:46;-23.09;76.75
72762;SHT30;60886;55.034;73.150;2024-02-21T18:30:47;-23.09;76.72
72762;SHT30;60886;55.034;73.150;2024-02-21T18:33:49;-23.12;76.56
72762;SHT30;60886;55.034;73.150;2024-02-21T18:36:51;-23.15;76.50
72762;SHT30;60886;55.034;73.150;2024-02-21T18:39:53;-23.15;76.65
72762;SHT30;60886;55.034;73.150;2024-02-21T18:42:55;-23.21;76.60
72762;SHT30;60886;55.034;73.150;2024-02-21T18:46:00;-23.22;76.69
72762;SHT30;60886;55.034;73.150;2024-02-21T18:49:01;-23.29;76.73
72762;SHT30;60886;55.034;73.150;2024-02-21T18:52:05;-23.32;76.72
72762;SHT30;60886;55.034;73.150;2024-02-21T18:55:07;-23.38;76.82
72762;SHT30;60886;55.034;73.150;2024-02-21T18:58:09;-23.43;77.02